Time;durP1;ratioP1;P1;durP2;ratioP2;P2;SDS_P1;SDS_P2;PMS_P1;PMS_P2;Temp;Humidity;BMP_temperature;BMP_pressure;BME280_temperature;BME280_humidity;BME280_pressure;Samples;Min_cycle;Max_cycle;Signal;HPM_P1;HPM_P2
2022/07/22 00:02:23;;;;;;;5.90;2.17;;;24.50;49.60;;;;;;5069146;28;20280;-62
2022/07/22 00:04:49;;;;;;;2.03;1.83;;;24.50;49.60;;;;;;5070686;28;20213;-61
2022/07/22 00:07:15;;;;;;;2.50;2.20;;;24.50;49.70;;;;;;5068198;28;20663;-60
2022/07/22 00:09:41;;;;;;;1.77;1.67;;;24.50;49.60;;;;;;5072477;28;20440;-63
2022/07/22 00:12:07;;;;;;;1.80;1.70;;;24.50;50.40;;;;;;5075396;28;20173;-64
2022/07/22 00:14:33;;;;;;;2.00;1.90;;;24.60;49.70;;;;;;5070577;28;20199;-61
2022/07/22 00:16:59;;;;;;;2.80;2.10;;;24.60;49.70;;;;;;5069648;28;20583;-62
2022/07/22 00:19:25;;;;;;;1.93;1.60;;;24.50;49.60;;;;;;5072911;28;20233;-65
2022/07/22 00:21:53;;;;;;;3.20;1.83;;;24.60;49.70;;;;;;5072222;28;20244;-61
2022/07/22 00:24:21;;;;;;;1.80;1.70;;;24.50;49.60;;;;;;5070757;28;20912;-60
2022/07/22 00:26:48;;;;;;;1.70;1.60;;;24.50;49.60;;;;;;5074000;28;20804;-75
2022/07/22 00:29:14;;;;;;;2.77;2.57;;;24.60;49.70;;;;;;5064886;28;20444;-63
2022/07/22 00:31:39;;;;;;;1.93;1.83;;;24.60;49.70;;;;;;5070305;28;20824;-72
2022/07/22 00:34:05;;;;;;;1.97;1.77;;;24.60;49.70;;;;;;5066507;28;20245;-75
2022/07/22 00:36:32;;;;;;;2.00;1.90;;;24.50;49.60;;;;;;5069117;28;20643;-64
2022/07/22 00:38:58;;;;;;;2.00;1.90;;;24.60;50.50;;;;;;5070100;28;20183;-66
2022/07/22 00:41:26;;;;;;;2.03;1.93;;;24.60;49.70;;;;;;5071496;28;20884;-60
2022/07/22 00:44:00;;;;;;;2.23;2.00;;;24.60;49.70;;;;;;5073606;28;20622;-68
2022/07/22 00:46:27;;;;;;;1.90;1.80;;;24.60;49.70;;;;;;5068567;28;20479;-63
2022/07/22 00:48:54;;;;;;;1.73;1.63;;;24.60;49.70;;;;;;5068230;28;20427;-66
2022/07/22 00:51:21;;;;;;;1.93;1.83;;;24.50;49.60;;;;;;5069957;28;20836;-60
2022/07/22 00:53:48;;;;;;;1.80;1.70;;;24.60;49.60;;;;;;5069599;28;20429;-60
2022/07/22 00:56:15;;;;;;;2.23;2.13;;;24.60;49.70;;;;;;5068197;28;20449;-60
2022/07/22 00:58:41;;;;;;;1.77;1.67;;;24.60;49.70;;;;;;5075376;28;20429;-59
2022/07/22 01:01:07;;;;;;;2.10;2.00;;;24.50;49.50;;;;;;5068290;28;20417;-77
2022/07/22 01:03:33;;;;;;;2.40;2.10;;;24.50;49.60;;;;;;5072861;28;20521;-60
2022/07/22 01:06:00;;;;;;;2.20;2.10;;;24.50;49.60;;;;;;5068094;28;20631;-64
2022/07/22 01:08:26;;;;;;;1.90;1.80;;;24.50;49.60;;;;;;5072998;28;20680;-58
2022/07/22 01:10:52;;;;;;;1.87;1.77;;;24.50;49.60;;;;;;5067326;28;20449;-68
2022/07/22 01:13:17;;;;;;;2.10;2.00;;;24.60;49.70;;;;;;5073401;28;20222;-71
2022/07/22 01:15:43;;;;;;;1.90;1.80;;;24.50;49.60;;;;;;5069525;28;20178;-59
2022/07/22 01:18:09;;;;;;;2.00;1.90;;;24.50;49.50;;;;;;5067643;28;20228;-57
2022/07/22 01:20:35;;;;;;;1.90;1.80;;;24.50;49.50;;;;;;5068621;28;20254;-58
2022/07/22 01:23:01;;;;;;;1.87;1.77;;;24.50;49.50;;;;;;5071963;28;20215;-73
2022/07/22 01:25:27;;;;;;;3.47;2.10;;;24.50;49.60;;;;;;5073018;28;20441;-65
2022/07/22 01:27:54;;;;;;;2.00;1.90;;;24.50;49.50;;;;;;5067378;28;20664;-63
2022/07/22 01:30:20;;;;;;;1.97;1.87;;;24.60;49.60;;;;;;5068504;28;20429;-62
2022/07/22 01:32:46;;;;;;;1.87;1.77;;;24.50;49.60;;;;;;5069488;28;20430;-73
2022/07/22 01:35:13;;;;;;;1.90;1.80;;;24.60;49.60;;;;;;5068144;28;20483;-60
2022/07/22 01:37:39;;;;;;;2.00;1.90;;;24.50;49.60;;;;;;5072914;28;20173;-58
2022/07/22 01:40:06;;;;;;;1.80;1.70;;;24.60;49.70;;;;;;5064187;28;20732;-72
2022/07/22 01:42:32;;;;;;;1.80;1.70;;;24.50;49.50;;;;;;5066790;28;20425;-62
2022/07/22 01:44:57;;;;;;;1.87;1.77;;;24.50;49.50;;;;;;5072617;28;20826;-63
2022/07/22 01:47:24;;;;;;;1.93;1.83;;;24.50;49.50;;;;;;5066255;28;20192;-60
2022/07/22 01:49:52;;;;;;;1.80;1.70;;;24.50;49.50;;;;;;5068546;28;20166;-61
2022/07/22 01:52:19;;;;;;;1.83;1.73;;;24.50;49.50;;;;;;5064522;28;21043;-74
2022/07/22 01:54:45;;;;;;;2.00;1.90;;;24.50;49.50;;;;;;5068129;28;20542;-66
2022/07/22 01:57:11;;;;;;;2.10;2.00;;;24.50;49.50;;;;;;5068534;28;20442;-63
2022/07/22 01:59:36;;;;;;;1.80;1.70;;;24.50;49.50;;;;;;5073569;28;20181;-77
2022/07/22 02:02:02;;;;;;;1.80;1.70;;;24.50;49.40;;;;;;5072561;28;20211;-67
2022/07/22 02:04:28;;;;;;;1.90;1.80;;;24.50;50.30;;;;;;5068864;28;20258;-61
2022/07/22 02:06:53;;;;;;;1.70;1.60;;;24.50;49.40;;;;;;5070877;28;20205;-66
2022/07/22 02:09:19;;;;;;;2.17;1.83;;;24.50;49.50;;;;;;5068015;28;20182;-59
2022/07/22 02:11:44;;;;;;;1.80;1.70;;;24.50;49.50;;;;;;5069769;28;20178;-58
2022/07/22 02:14:10;;;;;;;1.77;1.67;;;24.50;49.50;;;;;;5072240;28;20201;-57
2022/07/22 02:16:36;;;;;;;1.90;1.80;;;24.50;49.50;;;;;;5070651;28;20183;-72
2022/07/22 02:19:01;;;;;;;1.90;1.80;;;24.50;49.50;;;;;;5068613;28;20229;-67
2022/07/22 02:21:27;;;;;;;1.60;1.50;;;24.50;49.50;;;;;;5064468;28;20670;-62
2022/07/22 02:23:53;;;;;;;2.03;1.93;;;24.50;49.50;;;;;;5064821;28;20271;-64
2022/07/22 02:26:19;;;;;;;1.80;1.70;;;24.50;49.50;;;;;;5070350;28;20648;-58
2022/07/22 02:28:45;;;;;;;1.83;1.73;;;24.50;49.50;;;;;;5066599;28;20173;-64
2022/07/22 02:31:10;;;;;;;1.80;1.70;;;24.50;49.50;;;;;;5068965;28;20177;-58
2022/07/22 02:33:36;;;;;;;1.90;1.80;;;24.50;49.50;;;;;;5068205;28;20457;-61
2022/07/22 02:36:02;;;;;;;1.73;1.63;;;24.50;49.50;;;;;;5068553;28;21437;-58
2022/07/22 02:38:28;;;;;;;2.10;2.00;;;24.50;49.50;;;;;;5063556;28;20288;-60
2022/07/22 02:40:54;;;;;;;1.80;1.70;;;24.50;49.50;;;;;;5068122;28;20231;-73
2022/07/22 02:43:21;;;;;;;1.80;1.70;;;24.50;49.50;;;;;;5062177;28;20766;-59
2022/07/22 02:45:46;;;;;;;1.90;1.80;;;24.50;49.40;;;;;;5067717;28;20506;-64
2022/07/22 02:48:13;;;;;;;1.90;1.80;;;24.50;49.40;;;;;;5067071;28;21078;-58
2022/07/22 02:50:44;;;;;;;1.93;1.83;;;24.50;49.40;;;;;;5068800;28;20203;-63
2022/07/22 02:53:10;;;;;;;1.87;1.77;;;24.50;49.40;;;;;;5069248;28;20437;-73
2022/07/22 02:55:35;;;;;;;2.10;2.00;;;24.50;49.40;;;;;;5068266;28;20947;-59
2022/07/22 02:58:06;;;;;;;2.00;1.90;;;24.50;49.50;;;;;;5069365;28;20886;-62
2022/07/22 03:00:32;;;;;;;2.10;2.00;;;24.50;49.40;;;;;;5068137;28;20185;-70
2022/07/22 03:02:57;;;;;;;1.87;1.77;;;24.50;49.40;;;;;;5072490;28;20452;-70
2022/07/22 03:05:23;;;;;;;1.80;1.70;;;24.50;49.40;;;;;;5065808;28;20177;-65
2022/07/22 03:07:49;;;;;;;1.87;1.77;;;24.50;49.40;;;;;;5065618;28;20185;-76
2022/07/22 03:10:14;;;;;;;1.80;1.70;;;24.50;49.50;;;;;;5068635;28;20261;-57
2022/07/22 03:12:40;;;;;;;2.10;2.00;;;24.50;49.40;;;;;;5068539;28;20195;-66
2022/07/22 03:15:06;;;;;;;2.00;1.90;;;24.50;49.40;;;;;;5065697;28;20242;-66
2022/07/22 03:17:36;;;;;;;1.90;1.80;;;24.50;49.40;;;;;;5070909;28;20332;-72
2022/07/22 03:20:06;;;;;;;2.00;1.90;;;24.50;49.40;;;;;;5064891;28;21126;-69
2022/07/22 03:22:32;;;;;;;2.00;1.90;;;24.50;49.40;;;;;;5065700;28;20491;-61
2022/07/22 03:24:58;;;;;;;1.90;1.80;;;24.50;49.30;;;;;;5069840;28;20457;-63
2022/07/22 03:27:23;;;;;;;1.70;1.60;;;24.50;49.40;;;;;;5067991;28;20425;-63
2022/07/22 03:29:49;;;;;;;2.20;2.10;;;24.50;49.40;;;;;;5066501;28;20221;-57
2022/07/22 03:32:15;;;;;;;1.53;1.43;;;24.50;49.30;;;;;;5070999;28;20221;-58
2022/07/22 03:34:40;;;;;;;1.73;1.63;;;24.50;49.30;;;;;;5068055;28;20280;-74
2022/07/22 03:37:06;;;;;;;2.00;1.90;;;24.50;49.40;;;;;;5070660;28;20264;-72
2022/07/22 03:39:32;;;;;;;1.70;1.60;;;24.50;49.30;;;;;;5066658;28;20185;-74
2022/07/22 03:41:58;;;;;;;1.70;1.60;;;24.50;49.30;;;;;;5070169;28;20437;-58
2022/07/22 03:44:24;;;;;;;1.70;1.60;;;24.50;49.40;;;;;;5064531;28;20215;-68
2022/07/22 03:46:49;;;;;;;1.70;1.60;;;24.50;49.30;;;;;;5064362;28;20421;-61
2022/07/22 03:49:16;;;;;;;1.70;1.60;;;24.50;49.30;;;;;;5073411;28;22147;-57
2022/07/22 03:51:42;;;;;;;1.93;1.83;;;24.50;49.30;;;;;;5066581;28;20196;-62
2022/07/22 03:54:08;;;;;;;1.60;1.50;;;24.50;49.30;;;;;;5065675;28;20437;-63
2022/07/22 03:56:34;;;;;;;1.70;1.60;;;24.50;49.30;;;;;;5066905;28;21610;-58
2022/07/22 03:59:00;;;;;;;1.67;1.57;;;24.50;49.30;;;;;;5066600;28;20228;-60
2022/07/22 04:01:25;;;;;;;1.70;1.60;;;24.50;49.30;;;;;;5068232;28;20185;-67
2022/07/22 04:03:51;;;;;;;1.83;1.70;;;24.50;49.30;;;;;;5069975;28;20212;-59
2022/07/22 04:06:17;;;;;;;2.03;1.93;;;24.50;49.20;;;;;;5066354;28;20227;-63
2022/07/22 04:08:42;;;;;;;2.07;1.97;;;24.50;49.30;;;;;;5070964;28;20242;-69
2022/07/22 04:11:08;;;;;;;2.10;1.90;;;24.50;49.30;;;;;;5066776;28;20181;-67
2022/07/22 04:13:34;;;;;;;1.70;1.60;;;24.50;49.30;;;;;;5064033;28;20193;-61
2022/07/22 04:16:00;;;;;;;2.03;1.93;;;24.50;49.20;;;;;;5063356;28;20177;-63
2022/07/22 04:18:26;;;;;;;1.80;1.70;;;24.50;49.30;;;;;;5063244;28;20758;-61
2022/07/22 04:20:51;;;;;;;1.90;1.80;;;24.50;49.30;;;;;;5070507;28;20572;-65
2022/07/22 04:23:17;;;;;;;1.90;1.80;;;24.50;49.20;;;;;;5066566;28;20958;-75
2022/07/22 04:25:42;;;;;;;1.70;1.60;;;24.50;49.20;;;;;;5062906;28;20211;-58
2022/07/22 04:28:08;;;;;;;1.80;1.70;;;24.50;49.20;;;;;;5062759;28;20770;-61
2022/07/22 04:30:34;;;;;;;1.80;1.70;;;24.50;49.20;;;;;;5063309;28;20185;-75
2022/07/22 04:33:00;;;;;;;1.77;1.67;;;24.50;49.30;;;;;;5072255;28;20553;-60
2022/07/22 04:35:25;;;;;;;1.70;1.60;;;24.50;49.20;;;;;;5076297;28;20192;-72
2022/07/22 04:37:51;;;;;;;1.60;1.50;;;24.50;49.20;;;;;;5061864;28;20189;-70
2022/07/22 04:40:17;;;;;;;1.70;1.60;;;24.50;49.20;;;;;;5066388;28;20265;-70
2022/07/22 04:42:42;;;;;;;1.93;1.83;;;24.50;49.10;;;;;;5070390;28;20193;-59
2022/07/22 04:45:08;;;;;;;1.60;1.50;;;24.50;49.10;;;;;;5064283;28;20253;-67
2022/07/22 04:47:34;;;;;;;1.77;1.67;;;24.50;49.20;;;;;;5071490;28;20195;-75
2022/07/22 04:50:00;;;;;;;2.27;2.07;;;24.50;49.10;;;;;;5069897;28;21204;-66
2022/07/22 04:52:25;;;;;;;1.70;1.60;;;24.50;49.10;;;;;;5065524;28;20185;-60
2022/07/22 04:54:52;;;;;;;1.90;1.80;;;24.50;49.10;;;;;;5065892;28;20204;-62
2022/07/22 04:57:17;;;;;;;1.67;1.57;;;24.50;49.10;;;;;;5062656;28;21410;-60
2022/07/22 04:59:43;;;;;;;2.00;1.90;;;24.50;49.00;;;;;;5068660;28;20426;-60
2022/07/22 05:02:09;;;;;;;1.60;1.50;;;24.50;49.00;;;;;;5067547;28;20189;-58
2022/07/22 05:04:35;;;;;;;2.00;1.90;;;24.50;49.00;;;;;;5071713;28;20583;-63
2022/07/22 05:07:02;;;;;;;1.97;1.50;;;24.50;49.10;;;;;;5062116;28;20426;-75
2022/07/22 05:09:28;;;;;;;1.60;1.50;;;24.50;49.00;;;;;;5068433;28;20704;-74
2022/07/22 05:11:54;;;;;;;1.70;1.60;;;24.50;49.00;;;;;;5066375;28;20485;-60
2022/07/22 05:14:20;;;;;;;1.63;1.53;;;24.50;49.00;;;;;;5068402;28;20437;-73
2022/07/22 05:16:45;;;;;;;1.73;1.63;;;24.50;49.00;;;;;;5062444;28;20553;-73
2022/07/22 05:19:11;;;;;;;2.30;1.60;;;24.50;49.00;;;;;;5071044;28;20251;-58
2022/07/22 05:21:37;;;;;;;1.70;1.60;;;24.50;49.00;;;;;;5066349;28;20199;-72
2022/07/22 05:24:03;;;;;;;1.50;1.40;;;24.50;49.10;;;;;;5062633;28;21730;-58
2022/07/22 05:26:31;;;;;;;1.50;1.40;;;24.50;49.00;;;;;;5062265;28;20208;-72
2022/07/22 05:28:56;;;;;;;1.80;1.70;;;24.50;49.00;;;;;;5064197;28;20944;-59
2022/07/22 05:31:22;;;;;;;1.60;1.50;;;24.50;49.00;;;;;;5063932;28;20436;-62
2022/07/22 05:33:47;;;;;;;1.40;1.30;;;24.50;49.00;;;;;;5067519;28;21518;-58
2022/07/22 05:36:13;;;;;;;1.60;1.50;;;24.50;48.90;;;;;;5074279;28;20333;-60
2022/07/22 05:38:39;;;;;;;1.57;1.47;;;24.50;48.90;;;;;;5065029;28;20201;-74
2022/07/22 05:41:05;;;;;;;1.80;1.70;;;24.50;48.90;;;;;;5062640;28;20177;-58
2022/07/22 05:43:31;;;;;;;1.73;1.30;;;24.50;49.60;;;;;;5064830;28;20202;-64
2022/07/22 05:45:57;;;;;;;1.50;1.40;;;24.50;48.90;;;;;;5063841;28;20433;-60
2022/07/22 05:48:23;;;;;;;1.57;1.47;;;24.50;48.80;;;;;;5061530;28;20834;-73
2022/07/22 05:50:48;;;;;;;1.67;1.57;;;24.50;48.90;;;;;;5070518;28;20177;-58
2022/07/22 05:53:14;;;;;;;1.53;1.43;;;24.50;48.80;;;;;;5063060;28;20569;-73
2022/07/22 05:55:40;;;;;;;1.60;1.50;;;24.50;49.00;;;;;;5064959;28;20534;-64
2022/07/22 05:58:05;;;;;;;1.67;1.57;;;24.50;49.50;;;;;;5067413;28;20259;-76
2022/07/22 06:00:31;;;;;;;1.60;1.50;;;24.50;48.80;;;;;;5064949;28;20188;-73
2022/07/22 06:02:58;;;;;;;1.60;1.50;;;24.50;48.80;;;;;;5060102;28;20185;-72
2022/07/22 06:05:25;;;;;;;1.63;1.53;;;24.50;48.80;;;;;;5067497;28;20196;-60
2022/07/22 06:07:50;;;;;;;1.60;1.50;;;24.50;49.10;;;;;;5068655;28;20446;-62
2022/07/22 06:10:16;;;;;;;1.60;1.50;;;24.50;48.90;;;;;;5061255;28;20784;-73
2022/07/22 06:12:42;;;;;;;1.50;1.40;;;24.50;48.90;;;;;;5061846;28;20182;-62
2022/07/22 06:15:08;;;;;;;1.90;1.80;;;24.50;48.90;;;;;;5063690;28;20193;-60
2022/07/22 06:17:34;;;;;;;1.47;1.37;;;24.50;48.90;;;;;;5064514;28;20196;-61
2022/07/22 06:20:00;;;;;;;1.50;1.40;;;24.50;48.80;;;;;;5064228;28;20486;-73
2022/07/22 06:22:26;;;;;;;1.80;1.70;;;24.50;48.80;;;;;;5070039;28;20176;-61
2022/07/22 06:24:53;;;;;;;1.70;1.40;;;24.50;48.90;;;;;;5068621;28;20991;-74
2022/07/22 06:27:18;;;;;;;1.70;1.60;;;24.50;48.90;;;;;;5067142;28;20178;-61
2022/07/22 06:29:44;;;;;;;1.53;1.43;;;24.50;48.70;;;;;;5060385;28;20437;-66
2022/07/22 06:32:10;;;;;;;1.50;1.40;;;24.50;49.50;;;;;;5067159;28;20207;-63
2022/07/22 06:34:36;;;;;;;1.33;1.23;;;24.50;48.80;;;;;;5064067;28;20192;-62
2022/07/22 06:37:02;;;;;;;1.70;1.60;;;24.50;48.80;;;;;;5067923;28;20494;-62
2022/07/22 06:39:28;;;;;;;1.60;1.50;;;24.50;48.80;;;;;;5064489;28;20206;-60
2022/07/22 06:41:54;;;;;;;1.57;1.47;;;24.50;48.80;;;;;;5062723;28;20964;-62
2022/07/22 06:44:20;;;;;;;1.63;1.53;;;24.50;48.70;;;;;;5063845;28;20213;-68
2022/07/22 06:46:45;;;;;;;1.50;1.40;;;24.50;48.70;;;;;;5066988;28;20424;-61
2022/07/22 06:49:11;;;;;;;1.53;1.43;;;24.50;48.70;;;;;;5060390;28;20193;-66
2022/07/22 06:51:37;;;;;;;1.43;1.33;;;24.50;48.80;;;;;;5062333;28;20173;-68
2022/07/22 06:54:02;;;;;;;1.40;1.30;;;24.50;48.80;;;;;;5071930;28;20181;-66
2022/07/22 06:56:28;;;;;;;1.50;1.40;;;24.50;48.80;;;;;;5067054;28;20632;-62
2022/07/22 06:58:54;;;;;;;1.50;1.40;;;24.50;48.80;;;;;;5058659;28;20185;-64
2022/07/22 07:01:20;;;;;;;1.60;1.50;;;24.50;48.70;;;;;;5064147;28;20319;-71
2022/07/22 07:03:46;;;;;;;1.47;1.37;;;24.50;48.80;;;;;;5062860;28;20239;-61
2022/07/22 07:06:12;;;;;;;1.40;1.30;;;24.50;48.80;;;;;;5064838;28;20207;-74
2022/07/22 07:08:39;;;;;;;1.73;1.40;;;24.50;48.70;;;;;;5071967;28;21409;-58
2022/07/22 07:11:05;;;;;;;1.60;1.50;;;24.50;48.70;;;;;;5060895;28;20184;-58
2022/07/22 07:13:31;;;;;;;1.30;1.20;;;24.50;48.40;;;;;;5060603;28;20525;-58
2022/07/22 07:15:57;;;;;;;1.50;1.40;;;24.50;48.70;;;;;;5060052;28;20193;-60
2022/07/22 07:18:23;;;;;;;1.40;1.30;;;24.50;48.70;;;;;;5059987;28;20231;-60
2022/07/22 07:20:48;;;;;;;1.40;1.30;;;24.50;48.70;;;;;;5063635;28;20203;-66
2022/07/22 07:23:14;;;;;;;1.80;1.70;;;24.50;48.70;;;;;;5063749;28;20474;-61
2022/07/22 07:25:40;;;;;;;1.50;1.40;;;24.50;48.80;;;;;;5062354;28;21411;-62
2022/07/22 07:28:06;;;;;;;1.50;1.40;;;24.50;48.70;;;;;;5064772;28;20284;-74
2022/07/22 07:30:32;;;;;;;1.50;1.40;;;24.50;48.70;;;;;;5062906;28;20299;-70
2022/07/22 07:33:00;;;;;;;1.97;1.77;;;24.50;48.70;;;;;;5060475;28;20185;-63
2022/07/22 07:35:25;;;;;;;1.63;1.53;;;24.50;48.60;;;;;;5060268;28;20185;-59
2022/07/22 07:37:51;;;;;;;1.70;1.60;;;24.50;48.60;;;;;;5060203;28;20424;-73
2022/07/22 07:40:17;;;;;;;1.60;1.50;;;24.50;48.60;;;;;;5069444;28;20177;-62
2022/07/22 07:42:42;;;;;;;1.70;1.60;;;24.50;48.60;;;;;;5059141;28;20181;-58
2022/07/22 07:45:08;;;;;;;2.00;1.90;;;24.50;48.70;;;;;;5057773;28;20251;-64
2022/07/22 07:47:34;;;;;;;1.30;1.20;;;24.50;48.60;;;;;;5064740;28;20224;-58
2022/07/22 07:50:02;;;;;;;2.20;2.00;;;24.50;48.60;;;;;;5064177;28;20177;-73
2022/07/22 07:52:29;;;;;;;1.80;1.70;;;24.50;48.60;;;;;;5067995;28;20177;-58
2022/07/22 07:54:55;;;;;;;1.43;1.33;;;24.50;48.60;;;;;;5075451;28;20782;-64
2022/07/22 07:57:21;;;;;;;2.10;1.63;;;24.50;48.60;;;;;;5071078;28;20429;-60
2022/07/22 07:59:47;;;;;;;1.50;1.40;;;24.50;48.60;;;;;;5061106;28;20874;-75
2022/07/22 08:02:13;;;;;;;2.40;2.30;;;24.50;48.60;;;;;;5059931;28;20830;-65
2022/07/22 08:04:39;;;;;;;2.00;1.90;;;24.50;48.60;;;;;;5059827;28;20457;-59
2022/07/22 08:07:06;;;;;;;1.90;1.70;;;24.50;48.60;;;;;;5061813;28;20421;-62
2022/07/22 08:09:35;;;;;;;1.80;1.70;;;24.50;48.60;;;;;;5064297;28;20184;-61
2022/07/22 08:12:01;;;;;;;1.93;1.83;;;24.50;48.60;;;;;;5066552;28;21771;-67
2022/07/22 08:14:26;;;;;;;1.83;1.73;;;24.50;48.60;;;;;;5064493;28;20963;-70
2022/07/22 08:16:52;;;;;;;1.97;1.87;;;24.50;48.60;;;;;;5059577;28;20425;-69
2022/07/22 08:19:18;;;;;;;1.80;1.70;;;24.50;48.70;;;;;;5064308;28;20229;-60
2022/07/22 08:21:43;;;;;;;1.70;1.60;;;24.50;48.60;;;;;;5062671;28;20543;-66
2022/07/22 08:24:09;;;;;;;2.20;2.10;;;24.50;48.60;;;;;;5065193;28;20286;-72
2022/07/22 08:26:36;;;;;;;1.80;1.70;;;24.50;48.60;;;;;;5075515;28;20203;-58
2022/07/22 08:29:02;;;;;;;2.00;1.90;;;24.50;48.60;;;;;;5062851;28;20429;-65
2022/07/22 08:31:28;;;;;;;1.83;1.73;;;24.50;48.60;;;;;;5064275;28;20422;-75
2022/07/22 08:33:54;;;;;;;1.90;1.80;;;24.50;48.60;;;;;;5066295;28;20493;-67
2022/07/22 08:36:20;;;;;;;1.73;1.63;;;24.50;48.60;;;;;;5068428;28;22104;-64
2022/07/22 08:38:45;;;;;;;2.00;1.90;;;24.50;48.60;;;;;;5069041;28;20299;-65
2022/07/22 08:41:14;;;;;;;1.90;1.80;;;24.50;48.60;;;;;;5072868;28;20693;-60
2022/07/22 08:43:42;;;;;;;1.83;1.73;;;24.50;48.60;;;;;;5070010;28;20223;-63
2022/07/22 08:46:07;;;;;;;1.67;1.57;;;24.50;48.60;;;;;;5068952;28;20528;-60
2022/07/22 08:48:37;;;;;;;1.93;1.83;;;24.50;48.60;;;;;;5068934;28;20927;-58
2022/07/22 08:51:03;;;;;;;2.00;1.90;;;24.50;48.60;;;;;;5064139;28;20265;-61
2022/07/22 08:53:29;;;;;;;2.07;1.97;;;24.50;49.00;;;;;;5067286;28;20434;-58
2022/07/22 08:55:55;;;;;;;1.90;1.80;;;24.50;48.60;;;;;;5069408;28;20460;-66
2022/07/22 08:58:21;;;;;;;2.07;1.97;;;24.50;48.60;;;;;;5070275;28;20246;-64
2022/07/22 09:01:06;;;;;;;2.00;1.90;;;24.50;48.60;;;;;;5067422;28;20192;-61
2022/07/22 09:03:32;;;;;;;1.90;1.80;;;24.50;48.60;;;;;;5061913;28;20477;-71
2022/07/22 09:05:59;;;;;;;2.23;2.13;;;24.50;48.60;;;;;;5063624;28;20434;-61
2022/07/22 09:08:25;;;;;;;2.27;2.17;;;24.50;48.60;;;;;;5066912;28;20204;-67
2022/07/22 09:10:51;;;;;;;1.83;1.73;;;24.50;48.60;;;;;;5071578;28;20458;-74
2022/07/22 09:13:18;;;;;;;2.37;2.27;;;24.50;48.60;;;;;;5069219;28;20952;-68
2022/07/22 09:15:49;;;;;;;2.00;1.90;;;24.50;48.60;;;;;;5065936;28;20177;-63
2022/07/22 09:18:15;;;;;;;2.10;2.00;;;24.50;48.60;;;;;;5062329;28;20528;-73
2022/07/22 09:20:43;;;;;;;2.23;2.13;;;24.50;48.60;;;;;;5064334;28;20424;-58
2022/07/22 09:23:20;;;;;;;2.10;2.00;;;24.50;48.60;;;;;;5066535;28;20193;-66
2022/07/22 09:25:46;;;;;;;2.00;1.90;;;24.50;48.60;;;;;;5062807;28;20512;-66
2022/07/22 09:28:16;;;;;;;2.10;2.00;;;24.50;48.60;;;;;;5070084;28;20460;-62
2022/07/22 09:30:53;;;;;;;2.10;2.00;;;24.50;48.60;;;;;;5069541;28;20432;-60
2022/07/22 09:33:20;;;;;;;2.03;1.93;;;24.50;48.60;;;;;;5061035;28;20527;-72
2022/07/22 09:35:47;;;;;;;2.00;1.90;;;24.50;48.60;;;;;;5068316;28;20428;-62
2022/07/22 09:38:14;;;;;;;2.10;2.00;;;24.50;48.60;;;;;;5061245;28;20472;-61
2022/07/22 09:40:47;;;;;;;2.57;2.40;;;24.50;48.60;;;;;;5060567;28;20434;-71
2022/07/22 09:43:17;;;;;;;2.40;2.30;;;24.50;48.60;;;;;;5071650;28;20438;-65
2022/07/22 09:45:51;;;;;;;2.10;1.90;;;24.50;48.60;;;;;;5066152;28;20965;-62
2022/07/22 09:48:21;;;;;;;1.80;1.70;;;24.50;48.60;;;;;;5062965;28;20561;-71
2022/07/22 09:50:49;;;;;;;2.30;2.20;;;24.50;48.60;;;;;;5068317;28;20571;-68
2022/07/22 09:53:16;;;;;;;2.60;2.40;;;24.50;48.60;;;;;;5066257;28;20432;-58
2022/07/22 09:55:42;;;;;;;2.10;2.00;;;24.50;48.60;;;;;;5069182;28;20500;-58
2022/07/22 09:58:07;;;;;;;2.47;2.27;;;24.50;48.60;;;;;;5066169;28;20427;-59
2022/07/22 10:00:34;;;;;;;2.10;2.00;;;24.50;48.60;;;;;;5069694;28;21255;-61
2022/07/22 10:03:02;;;;;;;2.53;2.40;;;24.50;48.60;;;;;;5064418;28;20184;-65
2022/07/22 10:05:30;;;;;;;2.77;2.57;;;24.50;48.60;;;;;;5060021;28;20924;-63
2022/07/22 10:07:58;;;;;;;2.90;2.70;;;24.50;48.60;;;;;;5062751;28;20434;-62
2022/07/22 10:10:26;;;;;;;2.50;2.40;;;24.50;48.60;;;;;;5060940;28;20437;-66
2022/07/22 10:12:54;;;;;;;2.60;2.50;;;24.50;48.70;;;;;;5059826;28;20430;-62
2022/07/22 10:15:21;;;;;;;2.17;2.07;;;24.50;48.60;;;;;;5070296;28;20483;-72
2022/07/22 10:17:50;;;;;;;2.20;2.10;;;24.50;48.60;;;;;;5062898;28;20437;-72
2022/07/22 10:20:18;;;;;;;2.33;2.23;;;24.50;48.60;;;;;;5065417;28;20470;-65
2022/07/22 10:22:56;;;;;;;2.47;2.30;;;24.50;48.60;;;;;;5062560;28;20426;-73
2022/07/22 10:25:24;;;;;;;2.47;2.37;;;24.50;48.60;;;;;;5069305;28;20465;-75
2022/07/22 10:27:53;;;;;;;2.03;1.93;;;24.50;48.60;;;;;;5062587;28;20939;-59
2022/07/22 10:30:26;;;;;;;2.37;2.27;;;24.50;48.60;;;;;;5069004;28;20429;-71
2022/07/22 10:33:11;;;;;;;2.50;2.40;;;24.50;48.60;;;;;;5060620;28;20444;-73
2022/07/22 10:35:52;;;;;;;2.67;2.47;;;24.50;48.60;;;;;;5061735;28;20837;-70
2022/07/22 10:38:21;;;;;;;2.87;2.67;;;24.50;48.60;;;;;;5065968;28;20433;-63
2022/07/22 10:40:55;;;;;;;2.87;2.67;;;24.50;48.60;;;;;;5062697;28;20421;-60
2022/07/22 10:43:28;;;;;;;2.87;2.67;;;24.50;48.60;;;;;;5072895;28;20468;-60
2022/07/22 10:45:55;;;;;;;2.73;2.53;;;24.50;48.60;;;;;;5061923;28;20461;-58
2022/07/22 10:48:36;;;;;;;3.00;2.80;;;24.50;48.60;;;;;;5059021;28;20438;-71
2022/07/22 10:51:09;;;;;;;2.67;2.47;;;24.50;48.60;;;;;;5061104;28;20458;-64
2022/07/22 10:53:55;;;;;;;2.80;2.60;;;24.50;48.60;;;;;;5060202;28;20457;-61
2022/07/22 10:56:34;;;;;;;2.47;2.37;;;24.50;48.60;;;;;;5063716;28;20484;-61
2022/07/22 10:59:10;;;;;;;2.83;2.63;;;24.50;48.60;;;;;;5066099;28;20443;-60
2022/07/22 11:01:37;;;;;;;3.10;2.90;;;24.50;48.60;;;;;;5064295;28;20452;-67
2022/07/22 11:04:11;;;;;;;3.20;3.00;;;24.50;48.60;;;;;;5063139;28;20460;-66
2022/07/22 11:06:37;;;;;;;2.73;2.60;;;24.50;48.60;;;;;;5060168;28;20956;-73
2022/07/22 11:09:06;;;;;;;2.70;2.50;;;24.50;48.60;;;;;;5060911;28;20540;-73
2022/07/22 11:11:38;;;;;;;3.20;3.00;;;24.50;48.60;;;;;;5061877;28;20896;-64
2022/07/22 11:14:10;;;;;;;3.23;3.03;;;24.50;48.60;;;;;;5062825;28;20502;-62
2022/07/22 11:16:36;;;;;;;3.17;2.97;;;24.50;48.60;;;;;;5062197;28;21016;-74
2022/07/22 11:19:03;;;;;;;3.10;2.90;;;24.50;48.60;;;;;;5064788;28;20474;-63
2022/07/22 11:21:30;;;;;;;3.20;3.00;;;24.50;48.60;;;;;;5060639;28;20186;-62
2022/07/22 11:24:01;;;;;;;3.13;2.93;;;24.50;48.60;;;;;;5062442;28;20528;-66
2022/07/22 11:26:33;;;;;;;2.83;2.67;;;24.50;48.60;;;;;;5061695;28;20493;-64
2022/07/22 11:29:00;;;;;;;3.23;3.03;;;24.50;48.60;;;;;;5066051;28;20449;-57
2022/07/22 11:31:27;;;;;;;2.83;2.63;;;24.50;48.60;;;;;;5068770;28;20449;-69
2022/07/22 11:34:11;;;;;;;3.10;2.90;;;24.50;48.60;;;;;;5066082;28;20765;-63
2022/07/22 11:36:40;;;;;;;2.90;2.70;;;24.50;48.60;;;;;;5059908;28;20430;-70
2022/07/22 11:39:07;;;;;;;3.20;3.00;;;24.50;48.60;;;;;;5063016;28;20491;-71
2022/07/22 11:41:34;;;;;;;3.30;3.10;;;24.50;48.60;;;;;;5058638;28;20438;-62
2022/07/22 11:44:00;;;;;;;2.63;2.53;;;24.50;48.60;;;;;;5059311;28;20599;-66
2022/07/22 11:46:27;;;;;;;3.20;3.00;;;24.50;48.60;;;;;;5068951;28;20426;-59
2022/07/22 11:48:56;;;;;;;3.40;3.20;;;24.50;48.60;;;;;;5065667;28;20497;-65
2022/07/22 11:51:30;;;;;;;3.50;3.30;;;24.50;48.60;;;;;;5066859;28;20474;-73
2022/07/22 11:53:57;;;;;;;3.70;3.50;;;24.50;48.60;;;;;;5064018;28;20520;-61
2022/07/22 11:56:23;;;;;;;3.53;3.33;;;24.50;48.60;;;;;;5064779;28;20581;-67
2022/07/22 11:58:50;;;;;;;3.50;3.30;;;24.50;48.60;;;;;;5062018;28;20445;-60
2022/07/22 12:01:17;;;;;;;3.60;3.40;;;24.50;48.60;;;;;;5071398;28;20430;-59
2022/07/22 12:03:52;;;;;;;3.80;3.60;;;24.50;48.60;;;;;;5069307;28;21091;-61
2022/07/22 12:06:20;;;;;;;3.50;3.30;;;24.50;48.60;;;;;;5066328;28;20763;-58
2022/07/22 12:09:08;;;;;;;3.43;3.23;;;24.50;48.60;;;;;;5071541;28;20446;-62
2022/07/22 12:11:36;;;;;;;3.83;3.60;;;24.50;48.60;;;;;;5065572;28;20437;-62
2022/07/22 12:14:16;;;;;;;4.00;3.70;;;24.50;48.60;;;;;;5066052;28;20540;-61
2022/07/22 12:16:44;;;;;;;4.00;3.80;;;24.50;48.60;;;;;;5072315;28;20889;-68
2022/07/22 12:19:11;;;;;;;4.17;3.87;;;24.50;48.60;;;;;;5067597;28;20591;-72
2022/07/22 12:21:57;;;;;;;3.70;3.50;;;24.50;48.60;;;;;;5066582;28;20429;-60
2022/07/22 12:24:33;;;;;;;4.13;3.80;;;24.50;48.60;;;;;;5061150;28;20480;-66
2022/07/22 12:27:02;;;;;;;3.43;3.23;;;24.50;48.60;;;;;;5071941;28;20449;-63
2022/07/22 12:29:43;;;;;;;4.20;3.93;;;24.50;48.60;;;;;;5069030;28;20856;-60
2022/07/22 12:32:17;;;;;;;3.73;3.53;;;24.50;48.60;;;;;;5071858;28;20429;-62
2022/07/22 12:35:01;;;;;;;4.27;3.97;;;24.50;48.60;;;;;;5062708;28;20470;-70
2022/07/22 12:37:33;;;;;;;4.60;4.30;;;24.50;48.60;;;;;;5064277;28;20441;-68
2022/07/22 12:40:06;;;;;;;3.97;3.67;;;24.50;48.60;;;;;;5062686;28;20449;-60
2022/07/22 12:42:41;;;;;;;3.90;3.60;;;24.50;48.60;;;;;;5069930;28;20437;-61
2022/07/22 12:45:09;;;;;;;4.07;3.87;;;24.50;48.60;;;;;;5065385;28;20910;-68
2022/07/22 12:47:46;;;;;;;3.60;3.40;;;24.50;48.70;;;;;;5069739;28;20500;-72
2022/07/22 12:50:32;;;;;;;4.07;3.87;;;24.50;48.70;;;;;;5062761;28;20436;-65